sensor_id;sensor_type;location;lat;lon;timestamp;temperature;humidity
15296;DHT22;7749;49.964;7.890;2023-11-21T00:00:00;10.20;99.90
15296;DHT22;7749;49.964;7.890;2023-11-21T00:02:28;10.20;99.90
15296;DHT22;7749;49.964;7.890;2023-11-21T00:04:55;10.20;99.90
15296;DHT22;7749;49.964;7.890;2023-11-21T00:07:23;10.30;99.90
15296;DHT22;7749;49.964;7.890;2023-11-21T00:09:50;10.30;99.90
15296;DHT22;7749;49.964;7.890;2023-11-21T00:12:21;10.20;99.90
15296;DHT22;7749;49.964;7.890;2023-11-21T00:14:48;10.20;99.90
15296;DHT22;7749;49.964;7.890;2023-11-21T00:17:16;10.10;99.90
15296;DHT22;7749;49.964;7.890;2023-11-21T00:19:43;10.10;99.90
15296;DHT22;7749;49.964;7.890;2023-11-21T00:22:11;10.10;99.90
15296;DHT22;7749;49.964;7.890;2023-11-21T00:24:38;10.20;99.90
15296;DHT22;7749;49.964;7.890;2023-11-21T00:27:05;10.10;99.90
15296;DHT22;7749;49.964;7.890;2023-11-21T00:29:33;10.10;99.90
15296;DHT22;7749;49.964;7.890;2023-11-21T00:32:00;10.10;99.90
15296;DHT22;7749;49.964;7.890;2023-11-21T00:34:28;10.10;99.90
15296;DHT22;7749;49.964;7.890;2023-11-21T00:36:55;10.20;99.90
15296;DHT22;7749;49.964;7.890;2023-11-21T00:39:23;10.20;99.90
15296;DHT22;7749;49.964;7.890;2023-11-21T00:41:51;10.20;99.90
15296;DHT22;7749;49.964;7.890;2023-11-21T00:44:19;10.10;99.90
15296;DHT22;7749;49.964;7.890;2023-11-21T00:46:46;10.20;99.90
15296;DHT22;7749;49.964;7.890;2023-11-21T00:49:14;10.20;99.90
15296;DHT22;7749;49.964;7.890;2023-11-21T00:51:41;10.20;99.90
15296;DHT22;7749;49.964;7.890;2023-11-21T00:54:08;10.20;99.90
15296;DHT22;7749;49.964;7.890;2023-11-21T00:56:36;10.10;99.90
15296;DHT22;7749;49.964;7.890;2023-11-21T00:59:04;10.20;99.90
15296;DHT22;7749;49.964;7.890;2023-11-21T01:01:32;10.20;99.90
15296;DHT22;7749;49.964;7.890;2023-11-21T01:03:59;10.20;99.90
15296;DHT22;7749;49.964;7.890;2023-11-21T01:06:27;10.20;99.90
15296;DHT22;7749;49.964;7.890;2023-11-21T01:08:55;10.20;99.90
15296;DHT22;7749;49.964;7.890;2023-11-21T01:11:22;10.20;99.90
15296;DHT22;7749;49.964;7.890;2023-11-21T01:13:50;10.20;99.90
15296;DHT22;7749;49.964;7.890;2023-11-21T01:16:17;10.20;99.90
15296;DHT22;7749;49.964;7.890;2023-11-21T01:18:45;10.20;99.90
15296;DHT22;7749;49.964;7.890;2023-11-21T01:21:12;10.30;99.90
15296;DHT22;7749;49.964;7.890;2023-11-21T01:23:40;10.30;99.90
15296;DHT22;7749;49.964;7.890;2023-11-21T01:26:07;10.30;99.90
15296;DHT22;7749;49.964;7.890;2023-11-21T01:28:35;10.20;99.90
15296;DHT22;7749;49.964;7.890;2023-11-21T01:31:03;10.20;99.90
15296;DHT22;7749;49.964;7.890;2023-11-21T01:33:31;10.20;99.90
15296;DHT22;7749;49.964;7.890;2023-11-21T01:35:58;10.20;99.90
15296;DHT22;7749;49.964;7.890;2023-11-21T01:38:27;10.20;99.90
15296;DHT22;7749;49.964;7.890;2023-11-21T01:40:54;10.20;99.90
15296;DHT22;7749;49.964;7.890;2023-11-21T01:43:21;10.20;99.90
15296;DHT22;7749;49.964;7.890;2023-11-21T01:45:49;10.30;99.90
15296;DHT22;7749;49.964;7.890;2023-11-21T01:48:19;10.20;99.90
15296;DHT22;7749;49.964;7.890;2023-11-21T01:50:47;10.20;99.90
15296;DHT22;7749;49.964;7.890;2023-11-21T01:53:16;10.20;99.90
15296;DHT22;7749;49.964;7.890;2023-11-21T01:55:45;10.30;99.90
15296;DHT22;7749;49.964;7.890;2023-11-21T01:58:13;10.20;99.90
15296;DHT22;7749;49.964;7.890;2023-11-21T02:00:41;10.30;99.90
15296;DHT22;7749;49.964;7.890;2023-11-21T02:03:09;10.30;99.90
15296;DHT22;7749;49.964;7.890;2023-11-21T02:05:37;10.30;99.90
15296;DHT22;7749;49.964;7.890;2023-11-21T02:08:05;10.30;99.90
15296;DHT22;7749;49.964;7.890;2023-11-21T02:10:32;10.30;99.90
15296;DHT22;7749;49.964;7.890;2023-11-21T02:13:00;10.20;99.90
15296;DHT22;7749;49.964;7.890;2023-11-21T02:15:30;10.20;99.90
15296;DHT22;7749;49.964;7.890;2023-11-21T02:17:57;10.20;99.90
15296;DHT22;7749;49.964;7.890;2023-11-21T02:20:26;10.20;99.90
15296;DHT22;7749;49.964;7.890;2023-11-21T02:22:57;10.20;99.90
15296;DHT22;7749;49.964;7.890;2023-11-21T02:25:30;10.20;99.90
15296;DHT22;7749;49.964;7.890;2023-11-21T02:28:02;10.20;99.90
15296;DHT22;7749;49.964;7.890;2023-11-21T02:30:30;10.10;99.90
15296;DHT22;7749;49.964;7.890;2023-11-21T02:33:02;10.10;99.90
15296;DHT22;7749;49.964;7.890;2023-11-21T02:35:30;10.20;99.90
15296;DHT22;7749;49.964;7.890;2023-11-21T02:37:59;10.20;99.90
15296;DHT22;7749;49.964;7.890;2023-11-21T02:40:26;10.10;99.90
15296;DHT22;7749;49.964;7.890;2023-11-21T02:42:54;10.10;99.90
15296;DHT22;7749;49.964;7.890;2023-11-21T02:45:22;10.00;99.90
15296;DHT22;7749;49.964;7.890;2023-11-21T02:47:51;10.00;99.90
15296;DHT22;7749;49.964;7.890;2023-11-21T02:50:21;10.00;99.90
15296;DHT22;7749;49.964;7.890;2023-11-21T02:52:50;10.00;99.90
15296;DHT22;7749;49.964;7.890;2023-11-21T02:55:18;10.00;99.90
15296;DHT22;7749;49.964;7.890;2023-11-21T02:57:45;10.00;99.90
15296;DHT22;7749;49.964;7.890;2023-11-21T03:00:13;9.90;99.90
15296;DHT22;7749;49.964;7.890;2023-11-21T03:02:43;10.00;99.90
15296;DHT22;7749;49.964;7.890;2023-11-21T03:05:11;10.00;99.90
15296;DHT22;7749;49.964;7.890;2023-11-21T03:07:39;10.10;99.90
15296;DHT22;7749;49.964;7.890;2023-11-21T03:10:08;10.00;99.90
15296;DHT22;7749;49.964;7.890;2023-11-21T03:12:39;10.00;99.90
15296;DHT22;7749;49.964;7.890;2023-11-21T03:15:07;9.90;99.90
15296;DHT22;7749;49.964;7.890;2023-11-21T03:17:35;9.90;99.90
15296;DHT22;7749;49.964;7.890;2023-11-21T03:20:04;10.00;99.90
15296;DHT22;7749;49.964;7.890;2023-11-21T03:22:32;9.90;99.90
15296;DHT22;7749;49.964;7.890;2023-11-21T03:25:00;9.90;99.90
15296;DHT22;7749;49.964;7.890;2023-11-21T03:27:28;9.90;99.90
15296;DHT22;7749;49.964;7.890;2023-11-21T03:29:55;9.90;99.90
15296;DHT22;7749;49.964;7.890;2023-11-21T03:32:23;9.90;99.90
15296;DHT22;7749;49.964;7.890;2023-11-21T03:34:55;9.90;99.90
15296;DHT22;7749;49.964;7.890;2023-11-21T03:37:27;10.00;99.90
15296;DHT22;7749;49.964;7.890;2023-11-21T03:39:56;10.00;99.90
15296;DHT22;7749;49.964;7.890;2023-11-21T03:42:24;10.00;99.90
15296;DHT22;7749;49.964;7.890;2023-11-21T03:44:54;9.90;99.90
15296;DHT22;7749;49.964;7.890;2023-11-21T03:47:21;10.00;99.90
15296;DHT22;7749;49.964;7.890;2023-11-21T03:49:49;9.90;99.90
15296;DHT22;7749;49.964;7.890;2023-11-21T03:52:17;9.90;99.90
15296;DHT22;7749;49.964;7.890;2023-11-21T03:54:45;9.90;99.90
15296;DHT22;7749;49.964;7.890;2023-11-21T03:57:12;9.90;99.90
15296;DHT22;7749;49.964;7.890;2023-11-21T03:59:40;9.90;99.90
15296;DHT22;7749;49.964;7.890;2023-11-21T04:02:09;9.90;99.90
15296;DHT22;7749;49.964;7.890;2023-11-21T04:04:36;9.80;99.90
15296;DHT22;7749;49.964;7.890;2023-11-21T04:07:04;9.80;99.90
15296;DHT22;7749;49.964;7.890;2023-11-21T04:09:32;9.80;99.90
15296;DHT22;7749;49.964;7.890;2023-11-21T04:12:00;9.80;99.90
15296;DHT22;7749;49.964;7.890;2023-11-21T04:14:27;9.80;99.90
15296;DHT22;7749;49.964;7.890;2023-11-21T04:16:55;9.80;99.90
15296;DHT22;7749;49.964;7.890;2023-11-21T04:19:22;9.70;99.90
15296;DHT22;7749;49.964;7.890;2023-11-21T04:21:50;9.80;99.90
15296;DHT22;7749;49.964;7.890;2023-11-21T04:24:17;9.80;99.90
15296;DHT22;7749;49.964;7.890;2023-11-21T04:26:45;9.80;99.90
15296;DHT22;7749;49.964;7.890;2023-11-21T04:29:12;9.80;99.90
15296;DHT22;7749;49.964;7.890;2023-11-21T04:31:40;9.80;99.90
15296;DHT22;7749;49.964;7.890;2023-11-21T04:34:07;9.80;99.90
15296;DHT22;7749;49.964;7.890;2023-11-21T04:36:35;9.80;99.90
15296;DHT22;7749;49.964;7.890;2023-11-21T04:39:03;9.80;99.90
15296;DHT22;7749;49.964;7.890;2023-11-21T04:41:30;9.80;99.90
15296;DHT22;7749;49.964;7.890;2023-11-21T04:43:59;9.80;99.90
15296;DHT22;7749;49.964;7.890;2023-11-21T04:46:28;9.80;99.90
15296;DHT22;7749;49.964;7.890;2023-11-21T04:48:56;9.80;99.90
15296;DHT22;7749;49.964;7.890;2023-11-21T04:51:24;9.80;99.90
15296;DHT22;7749;49.964;7.890;2023-11-21T04:53:51;9.80;99.90
15296;DHT22;7749;49.964;7.890;2023-11-21T04:56:18;9.80;99.90
15296;DHT22;7749;49.964;7.890;2023-11-21T04:58:46;9.80;99.90
15296;DHT22;7749;49.964;7.890;2023-11-21T05:01:13;9.80;99.90
15296;DHT22;7749;49.964;7.890;2023-11-21T05:03:41;9.80;99.90
15296;DHT22;7749;49.964;7.890;2023-11-21T05:06:12;9.80;99.90
15296;DHT22;7749;49.964;7.890;2023-11-21T05:08:39;9.80;99.90
15296;DHT22;7749;49.964;7.890;2023-11-21T05:11:06;9.80;99.90
15296;DHT22;7749;49.964;7.890;2023-11-21T05:13:38;9.80;99.90
15296;DHT22;7749;49.964;7.890;2023-11-21T05:16:06;9.80;99.90
15296;DHT22;7749;49.964;7.890;2023-11-21T05:18:34;9.80;99.90
15296;DHT22;7749;49.964;7.890;2023-11-21T05:21:02;9.80;99.90
15296;DHT22;7749;49.964;7.890;2023-11-21T05:23:29;9.90;99.90
15296;DHT22;7749;49.964;7.890;2023-11-21T05:25:56;9.90;99.90
15296;DHT22;7749;49.964;7.890;2023-11-21T05:28:24;9.90;99.90
15296;DHT22;7749;49.964;7.890;2023-11-21T05:30:52;9.90;99.90
15296;DHT22;7749;49.964;7.890;2023-11-21T05:33:41;9.90;99.90
15296;DHT22;7749;49.964;7.890;2023-11-21T05:36:08;9.80;99.90
15296;DHT22;7749;49.964;7.890;2023-11-21T05:38:37;9.90;99.90
15296;DHT22;7749;49.964;7.890;2023-11-21T05:41:05;9.90;99.90
15296;DHT22;7749;49.964;7.890;2023-11-21T05:43:33;10.00;99.90
15296;DHT22;7749;49.964;7.890;2023-11-21T05:46:03;10.00;99.90
15296;DHT22;7749;49.964;7.890;2023-11-21T05:48:30;10.00;99.90
15296;DHT22;7749;49.964;7.890;2023-11-21T05:50:58;9.90;99.90
15296;DHT22;7749;49.964;7.890;2023-11-21T05:53:26;9.90;99.90
15296;DHT22;7749;49.964;7.890;2023-11-21T05:55:53;9.90;99.90
15296;DHT22;7749;49.964;7.890;2023-11-21T05:58:21;9.90;99.90
15296;DHT22;7749;49.964;7.890;2023-11-21T06:00:48;9.80;99.90
15296;DHT22;7749;49.964;7.890;2023-11-21T06:03:16;9.80;99.90
15296;DHT22;7749;49.964;7.890;2023-11-21T06:05:44;9.70;99.90
15296;DHT22;7749;49.964;7.890;2023-11-21T06:08:12;9.70;99.90
15296;DHT22;7749;49.964;7.890;2023-11-21T06:10:39;9.70;99.90
15296;DHT22;7749;49.964;7.890;2023-11-21T06:13:07;9.70;99.90
15296;DHT22;7749;49.964;7.890;2023-11-21T06:15:34;9.70;99.90
15296;DHT22;7749;49.964;7.890;2023-11-21T06:18:02;9.60;99.90
15296;DHT22;7749;49.964;7.890;2023-11-21T06:20:30;9.70;99.90
15296;DHT22;7749;49.964;7.890;2023-11-21T06:22:57;9.80;99.90
15296;DHT22;7749;49.964;7.890;2023-11-21T06:25:25;9.80;99.90
15296;DHT22;7749;49.964;7.890;2023-11-21T06:27:52;9.80;99.90
15296;DHT22;7749;49.964;7.890;2023-11-21T06:30:21;9.80;99.90
15296;DHT22;7749;49.964;7.890;2023-11-21T06:32:49;9.70;99.90
15296;DHT22;7749;49.964;7.890;2023-11-21T06:35:18;9.70;99.90
15296;DHT22;7749;49.964;7.890;2023-11-21T06:37:46;9.70;99.90
15296;DHT22;7749;49.964;7.890;2023-11-21T06:40:18;9.80;99.90
15296;DHT22;7749;49.964;7.890;2023-11-21T06:42:47;9.70;99.90
15296;DHT22;7749;49.964;7.890;2023-11-21T06:45:15;9.70;99.90
15296;DHT22;7749;49.964;7.890;2023-11-21T06:47:44;9.70;99.90
15296;DHT22;7749;49.964;7.890;2023-11-21T06:50:13;9.70;99.90
15296;DHT22;7749;49.964;7.890;2023-11-21T06:52:40;9.70;99.90
15296;DHT22;7749;49.964;7.890;2023-11-21T06:55:08;9.70;99.90
15296;DHT22;7749;49.964;7.890;2023-11-21T06:57:36;9.70;99.90
15296;DHT22;7749;49.964;7.890;2023-11-21T07:00:04;9.70;99.90
15296;DHT22;7749;49.964;7.890;2023-11-21T07:02:33;9.70;99.90
15296;DHT22;7749;49.964;7.890;2023-11-21T07:05:01;9.80;99.90
15296;DHT22;7749;49.964;7.890;2023-11-21T07:07:28;9.70;99.90
15296;DHT22;7749;49.964;7.890;2023-11-21T07:09:56;9.70;99.90
15296;DHT22;7749;49.964;7.890;2023-11-21T07:12:23;9.70;99.90
15296;DHT22;7749;49.964;7.890;2023-11-21T07:14:53;9.80;99.90
15296;DHT22;7749;49.964;7.890;2023-11-21T07:17:21;9.70;99.90
15296;DHT22;7749;49.964;7.890;2023-11-21T07:19:50;9.80;99.90
15296;DHT22;7749;49.964;7.890;2023-11-21T07:22:18;9.80;99.90
15296;DHT22;7749;49.964;7.890;2023-11-21T07:24:51;9.80;99.90
15296;DHT22;7749;49.964;7.890;2023-11-21T07:27:19;9.80;99.90
15296;DHT22;7749;49.964;7.890;2023-11-21T07:29:46;10.00;99.90
15296;DHT22;7749;49.964;7.890;2023-11-21T07:32:15;10.00;99.90
15296;DHT22;7749;49.964;7.890;2023-11-21T07:34:43;10.00;99.90
15296;DHT22;7749;49.964;7.890;2023-11-21T07:37:11;10.10;99.90
15296;DHT22;7749;49.964;7.890;2023-11-21T07:39:38;10.10;99.90
15296;DHT22;7749;49.964;7.890;2023-11-21T07:42:09;10.10;99.90
15296;DHT22;7749;49.964;7.890;2023-11-21T07:44:38;10.10;99.90
15296;DHT22;7749;49.964;7.890;2023-11-21T07:47:05;10.10;99.90
15296;DHT22;7749;49.964;7.890;2023-11-21T07:49:33;10.20;99.90
15296;DHT22;7749;49.964;7.890;2023-11-21T07:52:01;10.20;99.90
15296;DHT22;7749;49.964;7.890;2023-11-21T07:54:28;10.10;99.90
15296;DHT22;7749;49.964;7.890;2023-11-21T07:56:56;10.10;99.90
15296;DHT22;7749;49.964;7.890;2023-11-21T07:59:23;10.10;99.90
15296;DHT22;7749;49.964;7.890;2023-11-21T08:01:51;10.20;99.90
15296;DHT22;7749;49.964;7.890;2023-11-21T08:04:18;10.20;99.90
15296;DHT22;7749;49.964;7.890;2023-11-21T08:06:46;10.20;99.90
15296;DHT22;7749;49.964;7.890;2023-11-21T08:09:14;10.20;99.90
15296;DHT22;7749;49.964;7.890;2023-11-21T08:11:43;10.20;99.90
15296;DHT22;7749;49.964;7.890;2023-11-21T08:14:10;10.10;99.90
15296;DHT22;7749;49.964;7.890;2023-11-21T08:16:38;10.20;99.90
15296;DHT22;7749;49.964;7.890;2023-11-21T08:19:05;10.20;99.90
15296;DHT22;7749;49.964;7.890;2023-11-21T08:21:33;10.20;99.90
15296;DHT22;7749;49.964;7.890;2023-11-21T08:24:01;10.30;99.90
15296;DHT22;7749;49.964;7.890;2023-11-21T08:26:29;10.20;99.90
15296;DHT22;7749;49.964;7.890;2023-11-21T08:28:56;10.20;99.90
15296;DHT22;7749;49.964;7.890;2023-11-21T08:31:27;10.20;99.90
15296;DHT22;7749;49.964;7.890;2023-11-21T08:33:56;10.30;99.90
15296;DHT22;7749;49.964;7.890;2023-11-21T08:36:23;10.40;99.90
15296;DHT22;7749;49.964;7.890;2023-11-21T08:38:52;10.50;99.90
15296;DHT22;7749;49.964;7.890;2023-11-21T08:41:19;10.60;99.90
15296;DHT22;7749;49.964;7.890;2023-11-21T08:43:50;10.60;99.90
15296;DHT22;7749;49.964;7.890;2023-11-21T08:46:19;10.70;99.90
15296;DHT22;7749;49.964;7.890;2023-11-21T08:48:47;10.70;99.90
15296;DHT22;7749;49.964;7.890;2023-11-21T08:51:15;10.70;99.90
15296;DHT22;7749;49.964;7.890;2023-11-21T08:53:43;10.80;99.90
15296;DHT22;7749;49.964;7.890;2023-11-21T08:56:14;10.90;99.90
15296;DHT22;7749;49.964;7.890;2023-11-21T08:58:42;10.90;99.90
15296;DHT22;7749;49.964;7.890;2023-11-21T09:01:10;10.70;99.90
15296;DHT22;7749;49.964;7.890;2023-11-21T09:03:37;10.80;99.90
15296;DHT22;7749;49.964;7.890;2023-11-21T09:06:05;10.50;99.90
15296;DHT22;7749;49.964;7.890;2023-11-21T09:08:33;10.50;99.90
15296;DHT22;7749;49.964;7.890;2023-11-21T09:11:00;10.50;99.90
15296;DHT22;7749;49.964;7.890;2023-11-21T09:13:28;10.40;99.90
15296;DHT22;7749;49.964;7.890;2023-11-21T09:15:57;10.40;99.90
15296;DHT22;7749;49.964;7.890;2023-11-21T09:18:24;10.60;99.90
15296;DHT22;7749;49.964;7.890;2023-11-21T09:20:52;10.60;99.90
15296;DHT22;7749;49.964;7.890;2023-11-21T09:23:20;10.80;99.90
15296;DHT22;7749;49.964;7.890;2023-11-21T09:25:47;10.90;99.90
15296;DHT22;7749;49.964;7.890;2023-11-21T09:28:17;10.90;99.90
15296;DHT22;7749;49.964;7.890;2023-11-21T09:30:44;11.00;99.90
15296;DHT22;7749;49.964;7.890;2023-11-21T09:33:12;10.90;99.90
15296;DHT22;7749;49.964;7.890;2023-11-21T09:35:39;10.90;99.90
15296;DHT22;7749;49.964;7.890;2023-11-21T09:38:07;11.00;99.90
15296;DHT22;7749;49.964;7.890;2023-11-21T09:40:38;10.90;99.90
15296;DHT22;7749;49.964;7.890;2023-11-21T09:43:09;11.00;99.90
15296;DHT22;7749;49.964;7.890;2023-11-21T09:45:46;11.00;99.90
15296;DHT22;7749;49.964;7.890;2023-11-21T09:48:18;11.30;99.90
15296;DHT22;7749;49.964;7.890;2023-11-21T09:50:47;11.20;99.90
15296;DHT22;7749;49.964;7.890;2023-11-21T09:53:21;11.40;99.90
15296;DHT22;7749;49.964;7.890;2023-11-21T09:55:52;11.40;99.90
15296;DHT22;7749;49.964;7.890;2023-11-21T09:58:20;11.40;99.90
15296;DHT22;7749;49.964;7.890;2023-11-21T10:00:54;11.30;99.90
15296;DHT22;7749;49.964;7.890;2023-11-21T10:03:24;11.40;99.90
15296;DHT22;7749;49.964;7.890;2023-11-21T10:05:53;11.50;99.90
15296;DHT22;7749;49.964;7.890;2023-11-21T10:08:24;11.40;99.90
15296;DHT22;7749;49.964;7.890;2023-11-21T10:11:14;11.40;99.90
15296;DHT22;7749;49.964;7.890;2023-11-21T10:13:44;11.80;99.90
15296;DHT22;7749;49.964;7.890;2023-11-21T10:16:15;11.90;99.90
15296;DHT22;7749;49.964;7.890;2023-11-21T10:18:45;12.00;99.90
15296;DHT22;7749;49.964;7.890;2023-11-21T10:21:14;12.40;99.90
15296;DHT22;7749;49.964;7.890;2023-11-21T10:23:41;12.40;99.90
15296;DHT22;7749;49.964;7.890;2023-11-21T10:26:12;12.40;99.90
15296;DHT22;7749;49.964;7.890;2023-11-21T10:28:58;12.40;99.90
15296;DHT22;7749;49.964;7.890;2023-11-21T10:31:33;12.40;99.90
15296;DHT22;7749;49.964;7.890;2023-11-21T10:34:20;12.40;99.90
15296;DHT22;7749;49.964;7.890;2023-11-21T10:36:48;12.30;99.90
15296;DHT22;7749;49.964;7.890;2023-11-21T10:39:22;12.10;99.90
15296;DHT22;7749;49.964;7.890;2023-11-21T10:41:51;11.90;99.90
15296;DHT22;7749;49.964;7.890;2023-11-21T10:44:19;11.90;99.90
15296;DHT22;7749;49.964;7.890;2023-11-21T10:46:55;11.90;99.90
15296;DHT22;7749;49.964;7.890;2023-11-21T10:49:28;12.10;99.90
15296;DHT22;7749;49.964;7.890;2023-11-21T10:51:56;12.20;99.90
15296;DHT22;7749;49.964;7.890;2023-11-21T10:54:25;12.40;99.90
15296;DHT22;7749;49.964;7.890;2023-11-21T10:57:00;12.50;99.90
15296;DHT22;7749;49.964;7.890;2023-11-21T10:59:30;12.40;99.90
15296;DHT22;7749;49.964;7.890;2023-11-21T11:01:59;12.50;99.90
15296;DHT22;7749;49.964;7.890;2023-11-21T11:04:30;12.60;99.90
15296;DHT22;7749;49.964;7.890;2023-11-21T11:07:03;12.90;99.90
15296;DHT22;7749;49.964;7.890;2023-11-21T11:09:33;13.00;99.90
15296;DHT22;7749;49.964;7.890;2023-11-21T11:12:03;13.00;99.90
15296;DHT22;7749;49.964;7.890;2023-11-21T11:14:32;13.20;99.90
15296;DHT22;7749;49.964;7.890;2023-11-21T11:17:01;13.70;99.90
15296;DHT22;7749;49.964;7.890;2023-11-21T11:19:29;14.30;99.90
15296;DHT22;7749;49.964;7.890;2023-11-21T11:25:11;15.90;99.90
15296;DHT22;7749;49.964;7.890;2023-11-21T11:27:54;16.80;99.90
15296;DHT22;7749;49.964;7.890;2023-11-21T11:33:50;18.10;99.90
15296;DHT22;7749;49.964;7.890;2023-11-21T11:36:26;17.60;99.90
15296;DHT22;7749;49.964;7.890;2023-11-21T11:38:56;16.80;99.90
15296;DHT22;7749;49.964;7.890;2023-11-21T11:41:28;16.90;99.90
15296;DHT22;7749;49.964;7.890;2023-11-21T11:44:00;18.40;99.90
15296;DHT22;7749;49.964;7.890;2023-11-21T11:46:44;19.70;99.90
15296;DHT22;7749;49.964;7.890;2023-11-21T11:49:24;20.40;99.90
15296;DHT22;7749;49.964;7.890;2023-11-21T11:55:01;19.60;99.90
15296;DHT22;7749;49.964;7.890;2023-11-21T11:57:32;18.80;99.90
15296;DHT22;7749;49.964;7.890;2023-11-21T12:00:16;18.00;99.90
15296;DHT22;7749;49.964;7.890;2023-11-21T12:02:50;17.80;99.90
15296;DHT22;7749;49.964;7.890;2023-11-21T12:05:21;17.60;99.90
15296;DHT22;7749;49.964;7.890;2023-11-21T12:07:52;18.00;99.90
15296;DHT22;7749;49.964;7.890;2023-11-21T12:10:29;18.90;99.90
15296;DHT22;7749;49.964;7.890;2023-11-21T12:12:58;20.30;99.90
15296;DHT22;7749;49.964;7.890;2023-11-21T12:15:25;20.20;99.90
15296;DHT22;7749;49.964;7.890;2023-11-21T12:17:54;19.90;99.90
15296;DHT22;7749;49.964;7.890;2023-11-21T12:20:23;18.50;99.90
15296;DHT22;7749;49.964;7.890;2023-11-21T12:22:55;16.50;99.90
15296;DHT22;7749;49.964;7.890;2023-11-21T12:25:25;15.70;99.90
15296;DHT22;7749;49.964;7.890;2023-11-21T12:27:56;14.80;99.90
15296;DHT22;7749;49.964;7.890;2023-11-21T12:30:26;14.00;99.90
15296;DHT22;7749;49.964;7.890;2023-11-21T12:32:55;13.70;99.90
15296;DHT22;7749;49.964;7.890;2023-11-21T12:35:28;13.60;99.90
15296;DHT22;7749;49.964;7.890;2023-11-21T12:37:56;13.50;99.90
15296;DHT22;7749;49.964;7.890;2023-11-21T12:40:26;13.20;99.90
15296;DHT22;7749;49.964;7.890;2023-11-21T12:42:56;13.00;99.90
15296;DHT22;7749;49.964;7.890;2023-11-21T12:45:28;13.00;99.90
15296;DHT22;7749;49.964;7.890;2023-11-21T12:48:00;12.70;99.90
15296;DHT22;7749;49.964;7.890;2023-11-21T12:50:30;12.80;99.90
15296;DHT22;7749;49.964;7.890;2023-11-21T12:53:08;12.70;99.90
15296;DHT22;7749;49.964;7.890;2023-11-21T12:55:38;12.90;99.90
15296;DHT22;7749;49.964;7.890;2023-11-21T12:58:08;12.90;99.90
15296;DHT22;7749;49.964;7.890;2023-11-21T13:00:48;12.80;99.90
15296;DHT22;7749;49.964;7.890;2023-11-21T13:03:17;12.70;99.90
15296;DHT22;7749;49.964;7.890;2023-11-21T13:05:48;12.70;99.90
15296;DHT22;7749;49.964;7.890;2023-11-21T13:08:21;12.50;99.90
15296;DHT22;7749;49.964;7.890;2023-11-21T13:10:52;12.40;99.90
15296;DHT22;7749;49.964;7.890;2023-11-21T13:13:22;12.30;99.90
15296;DHT22;7749;49.964;7.890;2023-11-21T13:18:29;12.40;99.90
15296;DHT22;7749;49.964;7.890;2023-11-21T13:21:00;12.40;99.90
15296;DHT22;7749;49.964;7.890;2023-11-21T13:23:29;12.40;99.90
15296;DHT22;7749;49.964;7.890;2023-11-21T13:26:01;12.50;99.90
15296;DHT22;7749;49.964;7.890;2023-11-21T13:28:34;12.50;99.90
15296;DHT22;7749;49.964;7.890;2023-11-21T13:31:04;12.60;99.90
15296;DHT22;7749;49.964;7.890;2023-11-21T13:33:49;12.60;99.90
15296;DHT22;7749;49.964;7.890;2023-11-21T13:36:24;12.60;99.90
15296;DHT22;7749;49.964;7.890;2023-11-21T13:38:53;12.40;99.90
15296;DHT22;7749;49.964;7.890;2023-11-21T13:41:21;12.40;99.90
15296;DHT22;7749;49.964;7.890;2023-11-21T13:43:56;12.30;99.90
15296;DHT22;7749;49.964;7.890;2023-11-21T13:46:33;12.20;99.90
15296;DHT22;7749;49.964;7.890;2023-11-21T13:49:05;12.20;99.90
15296;DHT22;7749;49.964;7.890;2023-11-21T13:51:37;12.20;99.90
15296;DHT22;7749;49.964;7.890;2023-11-21T13:54:09;12.20;99.90
15296;DHT22;7749;49.964;7.890;2023-11-21T13:56:37;12.00;99.90
15296;DHT22;7749;49.964;7.890;2023-11-21T13:59:06;11.90;99.90
15296;DHT22;7749;49.964;7.890;2023-11-21T14:01:40;12.00;99.90
15296;DHT22;7749;49.964;7.890;2023-11-21T14:04:20;12.00;99.90
15296;DHT22;7749;49.964;7.890;2023-11-21T14:07:02;12.00;99.90
15296;DHT22;7749;49.964;7.890;2023-11-21T14:09:48;12.00;99.90
15296;DHT22;7749;49.964;7.890;2023-11-21T14:12:17;12.00;99.90
15296;DHT22;7749;49.964;7.890;2023-11-21T14:14:44;11.90;99.90
15296;DHT22;7749;49.964;7.890;2023-11-21T14:17:12;11.80;99.90
15296;DHT22;7749;49.964;7.890;2023-11-21T14:19:40;11.80;99.90
15296;DHT22;7749;49.964;7.890;2023-11-21T14:22:10;11.80;99.90
15296;DHT22;7749;49.964;7.890;2023-11-21T14:24:38;11.60;99.90
15296;DHT22;7749;49.964;7.890;2023-11-21T14:27:11;11.60;99.90
15296;DHT22;7749;49.964;7.890;2023-11-21T14:29:41;11.60;99.90
15296;DHT22;7749;49.964;7.890;2023-11-21T14:32:12;11.50;99.90
15296;DHT22;7749;49.964;7.890;2023-11-21T14:34:40;11.50;99.90
15296;DHT22;7749;49.964;7.890;2023-11-21T14:37:10;11.50;99.90
15296;DHT22;7749;49.964;7.890;2023-11-21T14:39:41;11.40;99.90
15296;DHT22;7749;49.964;7.890;2023-11-21T14:42:12;11.50;99.90
15296;DHT22;7749;49.964;7.890;2023-11-21T14:44:42;11.40;99.90
15296;DHT22;7749;49.964;7.890;2023-11-21T14:47:10;11.40;99.90
15296;DHT22;7749;49.964;7.890;2023-11-21T14:49:44;11.40;99.90
15296;DHT22;7749;49.964;7.890;2023-11-21T14:52:20;11.40;99.90
15296;DHT22;7749;49.964;7.890;2023-11-21T14:55:03;11.30;99.90
15296;DHT22;7749;49.964;7.890;2023-11-21T14:57:49;11.40;99.90
15296;DHT22;7749;49.964;7.890;2023-11-21T15:00:19;11.20;99.90
15296;DHT22;7749;49.964;7.890;2023-11-21T15:03:09;11.20;99.90
15296;DHT22;7749;49.964;7.890;2023-11-21T15:05:38;11.20;99.90
15296;DHT22;7749;49.964;7.890;2023-11-21T15:08:07;11.30;99.90
15296;DHT22;7749;49.964;7.890;2023-11-21T15:10:55;11.30;99.90
15296;DHT22;7749;49.964;7.890;2023-11-21T15:13:23;11.30;99.90
15296;DHT22;7749;49.964;7.890;2023-11-21T15:15:54;11.20;99.90
15296;DHT22;7749;49.964;7.890;2023-11-21T15:18:22;11.10;99.90
15296;DHT22;7749;49.964;7.890;2023-11-21T15:20:50;11.10;99.90
15296;DHT22;7749;49.964;7.890;2023-11-21T15:23:17;11.10;99.90
15296;DHT22;7749;49.964;7.890;2023-11-21T15:25:46;11.10;99.90
15296;DHT22;7749;49.964;7.890;2023-11-21T15:28:14;11.10;99.90
15296;DHT22;7749;49.964;7.890;2023-11-21T15:30:41;11.10;99.90
15296;DHT22;7749;49.964;7.890;2023-11-21T15:33:09;11.10;99.90
15296;DHT22;7749;49.964;7.890;2023-11-21T15:35:37;11.10;99.90
15296;DHT22;7749;49.964;7.890;2023-11-21T15:38:07;11.00;99.90
15296;DHT22;7749;49.964;7.890;2023-11-21T15:40:35;11.00;99.90
15296;DHT22;7749;49.964;7.890;2023-11-21T15:43:03;11.10;99.90
15296;DHT22;7749;49.964;7.890;2023-11-21T15:45:31;11.10;99.90
15296;DHT22;7749;49.964;7.890;2023-11-21T15:47:58;11.10;99.90
15296;DHT22;7749;49.964;7.890;2023-11-21T15:50:27;11.10;99.90
15296;DHT22;7749;49.964;7.890;2023-11-21T15:52:56;11.10;99.90
15296;DHT22;7749;49.964;7.890;2023-11-21T15:55:25;11.00;99.90
15296;DHT22;7749;49.964;7.890;2023-11-21T15:57:53;11.00;99.90
15296;DHT22;7749;49.964;7.890;2023-11-21T16:00:20;11.00;99.90
15296;DHT22;7749;49.964;7.890;2023-11-21T16:02:50;11.00;99.90
15296;DHT22;7749;49.964;7.890;2023-11-21T16:05:18;10.90;99.90
15296;DHT22;7749;49.964;7.890;2023-11-21T16:07:46;10.90;99.90
15296;DHT22;7749;49.964;7.890;2023-11-21T16:10:15;10.90;99.90
15296;DHT22;7749;49.964;7.890;2023-11-21T16:12:43;10.90;99.90
15296;DHT22;7749;49.964;7.890;2023-11-21T16:15:11;10.90;99.90